No particular awareness of the weather is required.    There are no Weather-warnings


Meteo18 Weather Cam more information Meteo18 Weather Cam


Thunder radar more information blitzortung!


Rain radar more information rain snow radar


Visit our other weather sites:

Template documentation
and downloads

And another site



Weather Underground History page Text

Daily Summary for November 9, 2017 Units:  English    Metric   Both
« Previous Day
Next Day »
Daily Weekly Monthly Yearly Custom
  High: Low: Average:
Temperature: 46.2 °F 39.6 °F 43.2 °F
Dew Point: 41.5 °F 37.9 °F 39.9 °F
Humidity: 95 % 78 % 88 %
Wind Speed: 4 mph 0 mph 0.6 mph
Wind Gust: 6 mph - -
Wind:- - SSW
Pressure: 30.4 in 30.2 in -
Precipitation: 0 in    
Historical Graphs
 
 
Tabular Data for November 9, 2017
Time Temperature Dew Point Pressure Wind Wind Speed Wind Gust Humidity Rainfall Rate (Hourly)
00:02 41.7 °F 40.1 °F 30.2 in Calm   1 mph 94 % 0 in
00:07 41.5 °F 39.9 °F 30.2 in NE 1 mph 2 mph 94 % 0 in
00:12 41.5 °F 40.3 °F 30.2 in Calm   3 mph 95 % 0 in
00:17 41.5 °F 40.3 °F 30.2 in Calm   3 mph 95 % 0 in
00:22 41.5 °F 40.3 °F 30.2 in North 1 mph 4 mph 95 % 0 in
00:32 41.5 °F 40.3 °F 30.2 in Calm   4 mph 95 % 0 in
00:42 41.4 °F 40.1 °F 30.2 in Calm   1 mph 95 % 0 in
00:47 41.4 °F 40.1 °F 30.2 in Calm   1 mph 95 % 0 in
00:52 41.4 °F 40.1 °F 30.2 in Calm   1 mph 95 % 0 in
01:02 41.4 °F 40.1 °F 30.2 in Calm   3 mph 95 % 0 in
01:07 41.4 °F 40.1 °F 30.2 in North 1 mph 3 mph 95 % 0 in
01:12 41.4 °F 40.1 °F 30.2 in Calm   3 mph 95 % 0 in
01:17 41.4 °F 40.1 °F 30.2 in Calm   2 mph 95 % 0 in
01:22 41.2 °F 39.9 °F 30.2 in Calm   2 mph 95 % 0 in
01:27 41.2 °F 39.9 °F 30.2 in Calm   2 mph 95 % 0 in
01:32 41.2 °F 39.9 °F 30.2 in Calm   1 mph 95 % 0 in
01:37 41 °F 39.7 °F 30.2 in Calm   1 mph 95 % 0 in
01:42 41 °F 39.7 °F 30.2 in Calm   1 mph 95 % 0 in
01:47 40.8 °F 39.6 °F 30.2 in Calm   1 mph 95 % 0 in
01:52 40.8 °F 39.6 °F 30.2 in Calm   1 mph 95 % 0 in
01:57 40.8 °F 39.6 °F 30.2 in Calm   1 mph 95 % 0 in
02:02 40.8 °F 39.6 °F 30.2 in Calm   1 mph 95 % 0 in
02:07 40.6 °F 39.4 °F 30.2 in Calm   1 mph 95 % 0 in
02:12 40.6 °F 39.4 °F 30.2 in North 1 mph 2 mph 95 % 0 in
02:17 40.6 °F 39.4 °F 30.2 in NW 2 mph 2 mph 95 % 0 in
02:22 40.6 °F 39.4 °F 30.2 in NW 1 mph 2 mph 95 % 0 in
02:27 40.6 °F 39.4 °F 30.2 in Calm   2 mph 95 % 0 in
02:32 40.6 °F 39 °F 30.2 in Calm   2 mph 94 % 0 in
02:37 40.5 °F 38.8 °F 30.2 in Calm   2 mph 94 % 0 in
02:42 40.5 °F 38.8 °F 30.2 in Calm   2 mph 94 % 0 in
02:47 40.6 °F 39 °F 30.2 in Calm   2 mph 94 % 0 in
02:52 40.6 °F 39 °F 30.2 in Calm   1 mph 94 % 0 in
02:57 40.6 °F 39 °F 30.2 in Calm   1 mph 94 % 0 in
03:02 40.6 °F 39 °F 30.2 in Calm   1 mph 94 % 0 in
03:07 39.6 °F 37.9 °F 30.2 in Calm   1 mph 94 % 0 in
03:12 39.6 °F 37.9 °F 30.2 in Calm   1 mph 94 % 0 in
03:17 39.6 °F 37.9 °F 30.2 in Calm   1 mph 94 % 0 in
08:57 40.5 °F 38.1 °F 30.3 in NW 1 mph -998.7 mph 91 % 0 in
09:02 40.5 °F 38.1 °F 30.3 in NNE 1 mph 4 mph 91 % 0 in
09:12 40.6 °F 38.3 °F 30.3 in NNW 2 mph 4 mph 91 % 0 in
09:17 40.6 °F 38.3 °F 30.3 in Calm   5 mph 91 % 0 in
09:22 40.6 °F 38.3 °F 30.3 in Calm   5 mph 91 % 0 in
09:32 40.8 °F 38.5 °F 30.3 in Calm   3 mph 91 % 0 in
09:37 40.8 °F 38.5 °F 30.3 in NE 4 mph 4 mph 91 % 0 in
09:42 41 °F 38.3 °F 30.3 in Calm   5 mph 90 % 0 in
09:47 41 °F 38.3 °F 30.3 in NNE 4 mph 5 mph 90 % 0 in
09:52 41.2 °F 38.5 °F 30.3 in NNE 2 mph 6 mph 90 % 0 in
09:57 41.2 °F 38.5 °F 30.3 in NNE 1 mph 6 mph 90 % 0 in
10:07 41.2 °F 38.1 °F 30.3 in NNE 2 mph 4 mph 89 % 0 in
10:12 41.2 °F 38.1 °F 30.3 in North 2 mph 4 mph 89 % 0 in
10:17 41.4 °F 38.3 °F 30.3 in NNW 2 mph 5 mph 89 % 0 in
10:22 41.4 °F 38.3 °F 30.3 in NNW 2 mph 5 mph 89 % 0 in
10:32 41.5 °F 38.3 °F 30.3 in NE 2 mph 5 mph 88 % 0 in
10:42 41.5 °F 38.3 °F 30.3 in ENE 2 mph 3 mph 88 % 0 in
10:47 41.7 °F 38.5 °F 30.3 in NNE 2 mph 3 mph 88 % 0 in
10:57 41.9 °F 38.7 °F 30.3 in NE 1 mph 3 mph 88 % 0 in
11:02 41.9 °F 38.7 °F 30.3 in Calm   3 mph 88 % 0 in
11:12 42.3 °F 39 °F 30.3 in Calm   2 mph 88 % 0 in
11:17 42.3 °F 38.7 °F 30.3 in Calm   2 mph 87 % 0 in
11:22 42.4 °F 38.8 °F 30.3 in Calm   1 mph 87 % 0 in
11:27 42.6 °F 39 °F 30.3 in Calm   1 mph 87 % 0 in
11:32 42.6 °F 38.7 °F 30.3 in Calm   1 mph 86 % 0 in
11:37 42.8 °F 38.8 °F 30.3 in Calm   1 mph 86 % 0 in
11:42 43 °F 39 °F 30.3 in Calm   1 mph 86 % 0 in
11:47 43.2 °F 39.2 °F 30.3 in Calm   1 mph 86 % 0 in
11:52 43.2 °F 39 °F 30.3 in Calm   1 mph 85 % 0 in
11:57 43 °F 38.8 °F 30.3 in Calm   2 mph 85 % 0 in
12:02 43.2 °F 39.2 °F 30.3 in Calm   2 mph 86 % 0 in
12:07 43.2 °F 39 °F 30.3 in Calm   2 mph 85 % 0 in
12:12 43.3 °F 39.2 °F 30.3 in Calm   2 mph 85 % 0 in
12:17 43.7 °F 39.6 °F 30.3 in Calm   1 mph 85 % 0 in
12:22 43.7 °F 39.2 °F 30.3 in Calm   1 mph 84 % 0 in
12:32 44.2 °F 39.4 °F 30.3 in NNW 1 mph 1 mph 83 % 0 in
12:42 44.2 °F 39.4 °F 30.3 in Calm   2 mph 83 % 0 in
12:47 44.1 °F 39.2 °F 30.3 in NE 1 mph 2 mph 83 % 0 in
12:52 44.2 °F 39.4 °F 30.3 in NNE 1 mph 2 mph 83 % 0 in
12:57 44.2 °F 39.4 °F 30.3 in Calm   2 mph 83 % 0 in
13:02 44.2 °F 39.4 °F 30.3 in Calm   2 mph 83 % 0 in
13:07 44.4 °F 39.6 °F 30.3 in Calm   2 mph 83 % 0 in
13:12 44.6 °F 39.7 °F 30.3 in Calm   2 mph 83 % 0 in
13:17 44.8 °F 39.9 °F 30.3 in Calm   1 mph 83 % 0 in
13:22 44.8 °F 39.6 °F 30.3 in Calm   1 mph 82 % 0 in
13:27 44.8 °F 39.6 °F 30.3 in Calm   1 mph 82 % 0 in
13:32 44.6 °F 39.7 °F 30.3 in Calm   1 mph 83 % 0 in
13:37 44.8 °F 39.6 °F 30.3 in Calm   1 mph 82 % 0 in
13:42 44.8 °F 39.6 °F 30.3 in Calm     82 % 0 in
13:47 44.8 °F 39.9 °F 30.3 in Calm     83 % 0 in
13:52 44.6 °F 39.4 °F 30.3 in Calm   2 mph 82 % 0 in
13:57 44.6 °F 39.7 °F 30.3 in Calm   2 mph 83 % 0 in
14:02 44.8 °F 39.9 °F 30.3 in Calm   2 mph 83 % 0 in
14:07 44.8 °F 39.9 °F 30.3 in Calm   2 mph 83 % 0 in
14:12 44.8 °F 40.3 °F 30.3 in NNE 1 mph 2 mph 84 % 0 in
14:17 44.8 °F 40.3 °F 30.3 in Calm   2 mph 84 % 0 in
14:22 45 °F 40.5 °F 30.3 in Calm   1 mph 84 % 0 in
14:27 45 °F 40.5 °F 30.3 in Calm   1 mph 84 % 0 in
14:32 45.1 °F 40.6 °F 30.3 in Calm   1 mph 84 % 0 in
14:37 45.3 °F 40.8 °F 30.3 in Calm   2 mph 84 % 0 in
14:42 45.3 °F 40.5 °F 30.3 in NNW 2 mph 2 mph 83 % 0 in
14:47 45.3 °F 40.5 °F 30.3 in NW 1 mph 3 mph 83 % 0 in
14:52 45.3 °F 40.5 °F 30.3 in Calm   3 mph 83 % 0 in
14:57 45.3 °F 40.1 °F 30.3 in Calm   3 mph 82 % 0 in
15:02 45.5 °F 40.1 °F 30.3 in Calm   2 mph 81 % 0 in
15:07 45.7 °F 40.1 °F 30.3 in NW 1 mph 3 mph 81 % 0 in
15:12 45.7 °F 39.9 °F 30.3 in Calm   4 mph 80 % 0 in
15:17 45.7 °F 39.9 °F 30.3 in Calm   4 mph 80 % 0 in
15:22 45.7 °F 39.6 °F 30.3 in North 1 mph 4 mph 79 % 0 in
15:27 45.7 °F 39.6 °F 30.3 in North 1 mph 3 mph 79 % 0 in
15:32 45.9 °F 40.1 °F 30.3 in NNW 1 mph 3 mph 80 % 0 in
15:37 45.9 °F 39.7 °F 30.3 in Calm   3 mph 79 % 0 in
15:42 46 °F 39.9 °F 30.3 in West 1 mph 3 mph 79 % 0 in
15:47 46 °F 39.6 °F 30.3 in Calm   4 mph 78 % 0 in
15:52 46 °F 39.9 °F 30.3 in Calm   5 mph 79 % 0 in
15:57 46 °F 40.3 °F 30.3 in Calm   5 mph 80 % 0 in
16:02 46.2 °F 40.5 °F 30.3 in WNW 1 mph 2 mph 80 % 0 in
16:12 46 °F 40.5 °F 30.3 in NW 3 mph 3 mph 81 % 0 in
16:17 46 °F 40.5 °F 30.3 in NW 2 mph 3 mph 81 % 0 in
16:22 45.9 °F 40.3 °F 30.3 in Calm   4 mph 81 % 0 in
16:27 45.9 °F 40.3 °F 30.3 in NW 2 mph 4 mph 81 % 0 in
16:32 45.9 °F 40.3 °F 30.3 in NNW 1 mph 4 mph 81 % 0 in
16:37 45.9 °F 40.3 °F 30.3 in NW 1 mph 4 mph 81 % 0 in
16:42 45.9 °F 40.3 °F 30.3 in Calm   3 mph 81 % 0 in
16:47 45.9 °F 40.3 °F 30.3 in Calm   3 mph 81 % 0 in
16:52 45.7 °F 40.5 °F 30.3 in Calm   2 mph 82 % 0 in
16:57 45.7 °F 40.5 °F 30.3 in Calm   1 mph 82 % 0 in
17:02 45.7 °F 40.5 °F 30.3 in Calm   1 mph 82 % 0 in
17:07 45.7 °F 40.5 °F 30.3 in Calm   1 mph 82 % 0 in
17:12 45.7 °F 40.5 °F 30.3 in Calm     82 % 0 in
17:17 45.5 °F 40.3 °F 30.3 in Calm     82 % 0 in
17:22 45.5 °F 40.3 °F 30.3 in Calm     82 % 0 in
17:27 45.3 °F 40.1 °F 30.3 in Calm     82 % 0 in
17:32 45.3 °F 40.5 °F 30.3 in Calm     83 % 0 in
17:37 45.3 °F 40.5 °F 30.3 in Calm     83 % 0 in
17:42 45.1 °F 40.3 °F 30.3 in Calm     83 % 0 in
17:47 45.1 °F 40.6 °F 30.3 in Calm     84 % 0 in
17:52 45.1 °F 40.6 °F 30.3 in Calm     84 % 0 in
17:57 45 °F 40.5 °F 30.3 in Calm     84 % 0 in
18:02 45 °F 40.6 °F 30.3 in Calm     85 % 0 in
18:12 44.8 °F 40.8 °F 30.3 in Calm   2 mph 86 % 0 in
18:17 44.4 °F 40.8 °F 30.3 in Calm   2 mph 87 % 0 in
18:22 44.4 °F 40.8 °F 30.3 in Calm   1 mph 87 % 0 in
18:32 44.1 °F 40.8 °F 30.3 in Calm   2 mph 88 % 0 in
18:42 44.1 °F 41 °F 30.4 in SW 1 mph 2 mph 89 % 0 in
18:47 44.1 °F 41 °F 30.4 in SW 1 mph 2 mph 89 % 0 in
18:52 44.1 °F 41.4 °F 30.4 in SW 2 mph 2 mph 90 % 0 in
19:02 44.1 °F 41.4 °F 30.4 in SSW 1 mph 4 mph 90 % 0 in
19:07 44.1 °F 41.4 °F 30.4 in South 1 mph 4 mph 90 % 0 in
19:12 44.1 °F 41.5 °F 30.4 in SSE 1 mph 3 mph 91 % 0 in
19:17 43.9 °F 41.4 °F 30.4 in Calm   2 mph 91 % 0 in
19:22 43.9 °F 41.4 °F 30.4 in Calm   2 mph 91 % 0 in
19:27 43.9 °F 41.4 °F 30.4 in Calm   1 mph 91 % 0 in
19:32 43.7 °F 41.2 °F 30.4 in SE 1 mph 1 mph 91 % 0 in
19:37 43.7 °F 41.2 °F 30.4 in SE 1 mph 1 mph 91 % 0 in
19:42 43.5 °F 41 °F 30.4 in Calm   2 mph 91 % 0 in
19:47 43.5 °F 41 °F 30.4 in SSE 1 mph 3 mph 91 % 0 in
19:52 43.3 °F 41.2 °F 30.4 in WSW 1 mph 5 mph 92 % 0 in
19:57 43.3 °F 41.2 °F 30.4 in Calm   5 mph 92 % 0 in
20:02 43.3 °F 41.2 °F 30.4 in SW 1 mph 5 mph 92 % 0 in
20:07 43.3 °F 41.2 °F 30.4 in Calm   4 mph 92 % 0 in
20:12 43.2 °F 41 °F 30.4 in Calm   2 mph 92 % 0 in
20:17 43.2 °F 41 °F 30.4 in Calm   2 mph 92 % 0 in
20:22 43.2 °F 41 °F 30.4 in SW 1 mph 1 mph 92 % 0 in
20:32 43 °F 40.8 °F 30.4 in SSW 2 mph 2 mph 92 % 0 in
20:37 43 °F 40.8 °F 30.4 in SW 2 mph 2 mph 92 % 0 in
20:42 43 °F 40.8 °F 30.4 in SSW 1 mph 3 mph 92 % 0 in
20:47 42.6 °F 40.5 °F 30.4 in Calm   3 mph 92 % 0 in
20:52 42.6 °F 40.8 °F 30.4 in SW 1 mph 2 mph 93 % 0 in
20:57 42.4 °F 40.6 °F 30.4 in Calm   2 mph 93 % 0 in
21:02 42.4 °F 40.6 °F 30.4 in Calm   2 mph 93 % 0 in
21:12 42.3 °F 40.5 °F 30.4 in WSW 1 mph 1 mph 93 % 0 in
21:17 42.3 °F 40.5 °F 30.4 in SW 1 mph 2 mph 93 % 0 in
21:22 42.3 °F 40.5 °F 30.4 in WSW 1 mph 4 mph 93 % 0 in
21:32 42.4 °F 40.6 °F 30.4 in WSW 2 mph 4 mph 93 % 0 in
21:37 42.6 °F 40.5 °F 30.4 in West 2 mph 4 mph 92 % 0 in
21:42 42.6 °F 40.5 °F 30.4 in WSW 4 mph 4 mph 92 % 0 in
21:47 42.8 °F 40.6 °F 30.4 in WSW 2 mph 6 mph 92 % 0 in
21:52 43 °F 40.8 °F 30.4 in Calm   6 mph 92 % 0 in
21:57 43 °F 40.8 °F 30.4 in West 1 mph 6 mph 92 % 0 in
22:02 43 °F 40.8 °F 30.4 in West 1 mph 5 mph 92 % 0 in
22:07 43 °F 40.8 °F 30.4 in Calm   4 mph 92 % 0 in
22:12 43 °F 40.8 °F 30.4 in West 1 mph 4 mph 92 % 0 in
22:17 43 °F 40.8 °F 30.4 in Calm   2 mph 92 % 0 in
22:22 43 °F 40.8 °F 30.4 in Calm   2 mph 92 % 0 in
22:27 43 °F 40.8 °F 30.4 in Calm   1 mph 92 % 0 in
22:32 43 °F 40.8 °F 30.4 in Calm     92 % 0 in
22:37 43 °F 40.8 °F 30.4 in Calm   1 mph 92 % 0 in
22:42 43 °F 40.8 °F 30.4 in Calm   1 mph 92 % 0 in
22:47 43 °F 40.8 °F 30.4 in Calm   1 mph 92 % 0 in
22:52 42.8 °F 40.6 °F 30.4 in Calm     92 % 0 in
22:57 42.8 °F 40.6 °F 30.4 in Calm     92 % 0 in
23:07 42.6 °F 40.5 °F 30.4 in SSW 2 mph 2 mph 92 % 0 in
23:12 42.4 °F 40.6 °F 30.4 in SSW 3 mph 4 mph 93 % 0 in
23:22 42.1 °F 40.3 °F 30.4 in SW 2 mph 4 mph 93 % 0 in
23:27 41.7 °F 39.9 °F 30.4 in SW 2 mph 4 mph 93 % 0 in
23:32 41.5 °F 39.7 °F 30.4 in SW 1 mph 4 mph 93 % 0 in
23:37 41.4 °F 39.6 °F 30.4 in SSW 1 mph 3 mph 93 % 0 in
23:42 41.2 °F 39.6 °F 30.4 in SW 2 mph 3 mph 94 % 0 in
23:47 41 °F 39.4 °F 30.4 in SW 1 mph 3 mph 94 % 0 in
23:52 41.2 °F 39.6 °F 30.4 in WSW 1 mph 3 mph 94 % 0 in
23:57 41.4 °F 39.7 °F 30.4 in Calm   3 mph 94 % 0 in
Meteo18
Compliments of Weather Underground - 4 mb

Script developed by  Jim McMurry - jmcmurry@mwt.net Adapted for the template by  Wim van der Kuil - Leuven-Template.eu

You find our weather info also at:

European Weather Network

Weather Underground

Equipment we use:

Weather-station
Davis Vue

Weather-program
Meteohub

Weather-server
Raspberry PI 2 B+

Provider
1 and 1

Davis Vue

Meteohub

Raspberry PI 2 B+

1 and 1